Time;durP1;ratioP1;P1;durP2;ratioP2;P2;SDS_P1;SDS_P2;PMS_P1;PMS_P2;Temp;Humidity;BMP_temperature;BMP_pressure;BME280_temperature;BME280_humidity;BME280_pressure;Samples;Min_cycle;Max_cycle;Signal;HPM_P1;HPM_P2
2022/10/27 00:00:35;;;;;;;3.45;2.03;;;;;;;10.77;76.50;95532.91;5126883;27;20254;-73
2022/10/27 00:03:02;;;;;;;4.72;2.30;;;;;;;10.75;76.65;95533.22;5132476;27;20232;-72
2022/10/27 00:05:29;;;;;;;6.80;2.78;;;;;;;10.79;76.85;95544.25;5131587;27;20204;-72
2022/10/27 00:07:56;;;;;;;7.15;3.08;;;;;;;10.75;77.07;95537.81;5125789;27;20202;-72
2022/10/27 00:10:23;;;;;;;2.78;1.83;;;;;;;10.71;77.53;95536.81;5127919;27;20201;-72
2022/10/27 00:12:49;;;;;;;4.43;1.83;;;;;;;10.74;77.59;95542.44;5131982;27;20715;-72
2022/10/27 00:15:16;;;;;;;3.85;1.98;;;;;;;10.75;77.17;95548.66;5131922;27;20200;-72
2022/10/27 00:17:44;;;;;;;3.63;2.10;;;;;;;10.79;77.17;95549.66;5129302;27;20260;-72
2022/10/27 00:20:12;;;;;;;2.70;1.48;;;;;;;10.83;77.48;95545.22;5132196;27;20217;-72
2022/10/27 00:22:39;;;;;;;2.13;1.30;;;;;;;10.89;76.88;95544.00;5131425;27;20684;-72
2022/10/27 00:25:06;;;;;;;2.45;1.70;;;;;;;10.88;76.78;95537.78;5131528;27;20310;-72
2022/10/27 00:27:33;;;;;;;3.20;2.08;;;;;;;10.92;76.39;95540.69;5128994;27;20253;-72
2022/10/27 00:30:00;;;;;;;3.20;1.70;;;;;;;10.92;76.38;95543.41;5116313;27;20246;-72
2022/10/27 00:32:26;;;;;;;4.18;1.60;;;;;;;10.84;77.14;95547.63;5131268;27;20217;-72
2022/10/27 00:34:54;;;;;;;3.70;1.88;;;;;;;10.73;77.29;95542.75;5131448;27;20212;-72
2022/10/27 00:37:21;;;;;;;7.47;1.70;;;;;;;10.69;77.31;95546.06;5127843;27;20691;-72
2022/10/27 00:39:48;;;;;;;1.88;1.40;;;;;;;10.64;76.68;95548.09;5127672;27;20201;-72
2022/10/27 00:42:15;;;;;;;1.95;1.30;;;;;;;10.60;77.32;95537.06;5130856;27;20432;-72
2022/10/27 00:44:45;;;;;;;2.70;1.60;;;;;;;10.70;77.06;95552.28;5131480;27;20201;-72
2022/10/27 00:47:20;;;;;;;2.22;1.63;;;;;;;10.57;77.03;95553.94;5128222;27;20256;-72
2022/10/27 00:49:53;;;;;;;3.90;1.80;;;;;;;10.40;77.80;95555.66;5120929;27;20288;-72
2022/10/27 00:52:29;;;;;;;2.35;1.38;;;;;;;10.29;78.48;95555.06;5130216;27;20250;-72
2022/10/27 00:54:58;;;;;;;3.80;1.95;;;;;;;10.36;78.73;95558.19;5131639;27;20201;-72
2022/10/27 00:57:27;;;;;;;6.43;1.50;;;;;;;10.38;78.26;95564.09;5124284;27;20193;-72
2022/10/27 00:59:54;;;;;;;4.40;1.85;;;;;;;10.11;79.17;95564.09;5127533;27;20662;-72
2022/10/27 01:02:21;;;;;;;8.15;2.83;;;;;;;10.09;79.49;95575.22;5130970;27;20258;-72
2022/10/27 01:04:55;;;;;;;4.47;2.13;;;;;;;10.30;78.68;95570.22;5131273;27;20205;-72
2022/10/27 01:07:24;;;;;;;4.50;2.20;;;;;;;10.48;77.70;95565.78;5126822;27;20268;-72
2022/10/27 01:09:52;;;;;;;4.25;1.75;;;;;;;10.59;76.99;95572.59;5123515;27;20246;-72
2022/10/27 01:12:18;;;;;;;6.57;2.30;;;;;;;10.71;76.45;95572.84;5130342;27;20293;-72
2022/10/27 01:14:45;;;;;;;3.85;1.48;;;;;;;10.82;76.82;95578.84;5131321;27;20205;-72
2022/10/27 01:17:24;;;;;;;2.83;1.70;;;;;;;10.81;76.00;95572.63;5127768;27;20205;-72
2022/10/27 01:20:20;;;;;;;3.42;1.60;;;;;;;10.64;76.70;95578.72;5127659;27;20192;-72
2022/10/27 01:22:54;;;;;;;4.07;1.45;;;;;;;10.71;76.65;95574.78;5113083;27;20232;-72
2022/10/27 01:25:48;;;;;;;3.63;1.95;;;;;;;10.75;76.64;95573.88;5130711;27;20205;-72
2022/10/27 01:29:03;;;;;;;2.42;1.55;;;;;;;10.81;77.11;95574.53;5118611;27;20749;-71
2022/10/27 01:31:37;;;;;;;3.15;1.85;;;;;;;10.78;76.97;95580.59;5032267;28;20565;-71
2022/10/27 01:34:11;;;;;;;4.40;2.03;;;;;;;10.80;76.99;95578.34;5045820;28;20208;-72
2022/10/27 01:36:42;;;;;;;6.35;2.17;;;;;;;10.76;77.07;95583.59;5096692;27;20305;-72
2022/10/27 01:39:16;;;;;;;2.28;1.77;;;;;;;10.69;77.36;95589.41;5112397;27;20554;-72
2022/10/27 01:41:48;;;;;;;4.60;1.80;;;;;;;10.70;76.79;95579.38;5117472;27;20281;-72
2022/10/27 01:44:19;;;;;;;4.05;2.03;;;;;;;10.59;76.79;95584.22;5129821;27;20277;-72
2022/10/27 01:46:48;;;;;;;6.15;2.10;;;;;;;10.63;77.28;95579.00;5127845;27;20217;-72
2022/10/27 01:49:15;;;;;;;4.53;2.58;;;;;;;10.67;77.60;95586.22;5119954;27;20205;-72
2022/10/27 01:51:41;;;;;;;2.47;1.90;;;;;;;10.68;77.39;95576.97;5119226;27;20257;-72
2022/10/27 01:54:09;;;;;;;4.50;2.25;;;;;;;10.74;77.43;95579.59;5129859;27;20258;-72
2022/10/27 01:56:57;;;;;;;5.10;2.38;;;;;;;10.64;77.64;95564.38;5128282;27;20262;-72
2022/10/27 01:59:42;;;;;;;3.55;1.95;;;;;;;10.58;78.05;95571.78;5120342;27;20254;-72
2022/10/27 02:02:18;;;;;;;3.20;2.17;;;;;;;10.32;79.31;95568.00;5128349;27;20691;-72
2022/10/27 02:04:57;;;;;;;3.08;1.63;;;;;;;10.46;79.02;95568.81;5129904;27;20781;-72
2022/10/27 02:07:32;;;;;;;3.70;1.75;;;;;;;10.40;78.94;95575.41;5126030;27;20589;-71
2022/10/27 02:10:04;;;;;;;3.20;1.77;;;;;;;10.35;79.00;95564.72;5123583;27;20200;-72
2022/10/27 02:12:32;;;;;;;2.63;1.63;;;;;;;10.47;78.57;95565.00;5129169;27;20236;-72
2022/10/27 02:15:01;;;;;;;5.05;2.30;;;;;;;10.53;78.50;95569.19;5129217;27;20197;-72
2022/10/27 02:17:37;;;;;;;4.75;2.05;;;;;;;10.54;78.78;95568.06;5126664;27;20196;-73
2022/10/27 02:20:09;;;;;;;4.68;1.83;;;;;;;10.58;78.11;95566.38;5127307;27;20297;-72
2022/10/27 02:22:38;;;;;;;5.50;2.03;;;;;;;10.56;78.34;95556.94;5129825;27;20230;-72
2022/10/27 02:25:05;;;;;;;1.70;1.23;;;;;;;10.51;78.89;95566.00;5129652;28;20200;-72
2022/10/27 02:27:36;;;;;;;1.60;1.30;;;;;;;10.58;78.80;95566.38;5126074;28;20201;-72
2022/10/27 02:30:05;;;;;;;2.45;1.75;;;;;;;10.59;78.67;95570.69;5126784;28;20245;-72
2022/10/27 02:32:34;;;;;;;8.73;2.20;;;;;;;10.53;78.90;95580.00;5129031;28;20212;-72
2022/10/27 02:35:04;;;;;;;4.15;1.83;;;;;;;10.55;78.81;95585.94;5129955;28;20265;-72
2022/10/27 02:37:33;;;;;;;4.13;1.77;;;;;;;10.44;78.71;95591.88;5120985;28;20204;-72
2022/10/27 02:40:00;;;;;;;2.55;1.67;;;;;;;10.44;78.59;95587.25;5117474;28;20253;-72
2022/10/27 02:42:27;;;;;;;6.80;2.30;;;;;;;10.42;78.74;95580.53;5129689;28;20258;-73
2022/10/27 02:44:53;;;;;;;2.75;1.50;;;;;;;10.31;79.09;95593.50;5117861;27;20236;-73
2022/10/27 02:47:20;;;;;;;3.85;1.52;;;;;;;10.29;79.08;95588.38;5129712;27;20755;-72
2022/10/27 02:49:49;;;;;;;4.85;1.98;;;;;;;10.19;79.54;95596.72;5133521;27;20668;-72
2022/10/27 02:52:16;;;;;;;2.30;1.80;;;;;;;10.24;79.58;95598.53;5133366;27;20663;-73
2022/10/27 02:54:46;;;;;;;6.07;2.00;;;;;;;10.26;79.35;95601.69;5133855;27;20209;-73
2022/10/27 02:57:14;;;;;;;4.03;2.08;;;;;;;10.23;79.42;95600.44;5127118;27;20204;-73
2022/10/27 02:59:41;;;;;;;5.53;1.98;;;;;;;10.20;79.64;95602.94;5125092;27;20250;-72
2022/10/27 03:02:08;;;;;;;3.17;1.73;;;;;;;10.21;80.09;95604.53;5131975;27;20288;-71
2022/10/27 03:04:35;;;;;;;3.65;1.80;;;;;;;10.25;79.75;95595.47;5132697;27;20232;-72
2022/10/27 03:07:04;;;;;;;4.20;1.85;;;;;;;10.25;79.53;95605.53;5129685;27;20230;-72
2022/10/27 03:09:31;;;;;;;7.88;1.83;;;;;;;10.14;79.95;95599.47;5130195;27;20250;-73
2022/10/27 03:11:58;;;;;;;4.60;2.05;;;;;;;10.17;80.34;95608.91;5132133;27;20309;-72
2022/10/27 03:14:24;;;;;;;3.60;2.22;;;;;;;10.22;80.20;95598.81;5132664;27;20209;-73
2022/10/27 03:16:51;;;;;;;7.65;1.90;;;;;;;10.23;80.43;95607.75;5130261;27;20551;-72
2022/10/27 03:19:18;;;;;;;15.60;2.63;;;;;;;10.11;80.77;95610.94;5128678;27;20489;-72
2022/10/27 03:21:45;;;;;;;2.72;1.77;;;;;;;9.73;81.78;95618.38;5131990;27;20254;-72
2022/10/27 03:24:13;;;;;;;2.10;1.90;;;;;;;9.56;82.77;95621.66;5131762;27;20231;-72
2022/10/27 03:26:40;;;;;;;4.50;2.33;;;;;;;9.71;82.34;95627.88;5130417;27;20573;-72
2022/10/27 03:29:06;;;;;;;2.88;1.70;;;;;;;9.72;82.29;95632.19;5120814;27;20545;-72
2022/10/27 03:31:33;;;;;;;3.58;2.03;;;;;;;9.71;82.43;95639.50;5128758;27;20205;-72
2022/10/27 03:34:00;;;;;;;4.32;2.60;;;;;;;9.88;82.05;95639.75;5132220;27;20205;-72
2022/10/27 03:36:27;;;;;;;4.70;2.92;;;;;;;9.99;81.38;95635.75;5131650;27;20201;-72
2022/10/27 03:38:54;;;;;;;5.50;2.85;;;;;;;10.01;80.89;95627.34;5122515;27;20189;-72
2022/10/27 03:41:22;;;;;;;3.83;1.65;;;;;;;10.04;80.64;95626.75;5132309;27;20325;-72
2022/10/27 03:43:49;;;;;;;3.00;2.17;;;;;;;9.96;81.33;95630.97;5132234;27;20711;-72
2022/10/27 03:46:15;;;;;;;3.72;1.90;;;;;;;9.94;81.70;95632.34;5131563;27;20722;-73
2022/10/27 03:48:42;;;;;;;3.60;2.25;;;;;;;9.99;81.98;95630.34;5121827;27;20196;-73
2022/10/27 03:51:09;;;;;;;13.40;2.05;;;;;;;10.06;81.63;95624.53;5132192;27;20329;-74
2022/10/27 03:53:36;;;;;;;6.25;2.15;;;;;;;10.11;81.80;95626.38;5132030;27;20220;-73
2022/10/27 03:56:03;;;;;;;2.55;1.30;;;;;;;10.16;81.72;95628.97;5130764;27;20209;-72
2022/10/27 03:58:31;;;;;;;3.83;2.13;;;;;;;10.25;80.96;95616.38;5125271;27;20612;-72
2022/10/27 04:01:01;;;;;;;2.33;1.80;;;;;;;10.36;80.68;95620.47;5131995;27;20205;-72
2022/10/27 04:03:28;;;;;;;2.90;1.70;;;;;;;10.20;81.33;95614.56;5130455;27;20233;-71
2022/10/27 04:05:54;;;;;;;2.72;1.73;;;;;;;10.01;81.92;95615.69;5131654;27;20208;-71
2022/10/27 04:08:21;;;;;;;3.95;2.00;;;;;;;10.07;82.26;95619.94;5123340;27;20197;-72
2022/10/27 04:10:48;;;;;;;12.60;1.92;;;;;;;10.12;81.91;95617.13;5130995;27;20254;-73
2022/10/27 04:13:15;;;;;;;3.60;1.88;;;;;;;10.16;81.60;95618.13;5131953;27;20246;-71
2022/10/27 04:15:43;;;;;;;6.22;2.72;;;;;;;10.04;81.66;95609.69;5118267;27;20257;-71
2022/10/27 04:18:13;;;;;;;5.07;2.55;;;;;;;10.08;81.43;95616.13;5124899;27;20710;-72
2022/10/27 04:20:40;;;;;;;5.10;2.55;;;;;;;10.15;81.11;95616.53;5130672;27;20263;-72
2022/10/27 04:23:06;;;;;;;3.63;1.60;;;;;;;10.08;81.43;95629.66;5128222;27;20444;-72
2022/10/27 04:25:33;;;;;;;2.92;2.28;;;;;;;9.92;82.19;95629.94;5130761;27;20747;-73
2022/10/27 04:28:04;;;;;;;5.30;2.35;;;;;;;9.97;82.02;95637.97;5126643;27;20246;-73
2022/10/27 04:30:31;;;;;;;2.72;1.60;;;;;;;9.90;82.37;95637.56;5131146;27;20205;-72
2022/10/27 04:32:59;;;;;;;4.65;2.28;;;;;;;9.77;82.95;95632.91;5131067;27;20209;-74
2022/10/27 04:35:26;;;;;;;6.93;2.67;;;;;;;9.83;82.73;95637.16;5131885;27;20208;-73
2022/10/27 04:37:54;;;;;;;6.72;2.25;;;;;;;9.79;82.59;95636.13;5126490;27;20258;-73
2022/10/27 04:40:21;;;;;;;14.85;1.98;;;;;;;9.63;83.44;95638.28;5121084;27;20356;-73
2022/10/27 04:42:48;;;;;;;4.07;2.28;;;;;;;9.55;83.79;95638.19;5126872;27;20300;-73
2022/10/27 04:45:15;;;;;;;4.93;2.50;;;;;;;9.58;84.07;95642.97;5130612;27;20703;-72
2022/10/27 04:47:43;;;;;;;3.08;2.00;;;;;;;9.55;84.23;95640.88;5121960;27;20221;-72
2022/10/27 04:50:11;;;;;;;4.40;1.92;;;;;;;9.55;84.34;95641.69;5122397;27;20197;-72
2022/10/27 04:52:38;;;;;;;4.47;2.22;;;;;;;9.49;84.35;95644.75;5130702;27;20205;-72
2022/10/27 04:55:05;;;;;;;10.80;2.00;;;;;;;9.33;84.87;95640.69;5131402;27;20204;-72
2022/10/27 04:57:32;;;;;;;3.33;1.90;;;;;;;9.27;84.94;95640.78;5125775;27;20200;-71
2022/10/27 04:59:59;;;;;;;4.25;2.05;;;;;;;9.19;85.75;95644.13;5117098;27;20243;-72
2022/10/27 05:02:25;;;;;;;9.73;2.97;;;;;;;9.23;85.88;95645.16;5128738;27;20218;-73
2022/10/27 05:04:52;;;;;;;7.10;2.90;;;;;;;9.15;86.58;95648.53;5130690;27;20239;-73
2022/10/27 05:07:20;;;;;;;10.07;2.55;;;;;;;9.14;86.71;95652.34;5128106;27;20201;-73
2022/10/27 05:09:47;;;;;;;2.38;2.17;;;;;;;9.10;87.02;95651.31;5124805;27;20213;-72
2022/10/27 05:12:14;;;;;;;8.07;3.30;;;;;;;9.10;87.56;95651.31;5130673;27;20229;-73
2022/10/27 05:14:41;;;;;;;8.57;2.70;;;;;;;9.25;87.33;95666.50;5130707;27;20209;-72
2022/10/27 05:17:07;;;;;;;5.15;2.92;;;;;;;9.29;86.56;95674.84;5123845;27;20274;-74
2022/10/27 05:19:34;;;;;;;7.53;3.00;;;;;;;9.33;85.96;95681.25;5124534;27;20205;-73
2022/10/27 05:22:01;;;;;;;3.30;2.20;;;;;;;9.35;86.04;95689.88;5130969;27;20201;-73
2022/10/27 05:24:29;;;;;;;15.68;4.80;;;;;;;9.53;85.74;95689.06;5118623;27;20270;-72
2022/10/27 05:26:56;;;;;;;12.05;4.22;;;;;;;9.87;84.50;95692.28;5125610;27;20193;-72
2022/10/27 05:29:24;;;;;;;4.63;2.22;;;;;;;10.07;83.11;95695.72;5126748;27;20205;-73
2022/10/27 05:31:51;;;;;;;14.63;2.13;;;;;;;10.16;82.71;95699.34;5129858;27;20277;-74
2022/10/27 05:34:18;;;;;;;9.93;2.42;;;;;;;10.26;82.39;95705.41;5130811;27;20215;-72
2022/10/27 05:36:46;;;;;;;5.90;3.10;;;;;;;10.30;81.99;95705.63;5127354;27;20205;-73
2022/10/27 05:39:13;;;;;;;5.20;3.10;;;;;;;10.31;81.19;95716.16;5111222;27;20566;-73
2022/10/27 05:44:31;;;;;;;8.82;3.08;;;;;;;10.13;81.18;95727.81;5130249;27;20236;-73
2022/10/27 05:46:58;;;;;;;6.95;3.38;;;;;;;10.19;80.92;95732.09;5125457;27;20220;-71
2022/10/27 05:49:24;;;;;;;4.00;2.33;;;;;;;10.32;80.50;95733.22;5122245;27;20276;-72
2022/10/27 05:51:53;;;;;;;7.75;3.03;;;;;;;10.40;79.75;95732.50;5117373;27;20197;-73
2022/10/27 05:54:20;;;;;;;17.67;3.25;;;;;;;10.54;78.91;95737.94;5125384;27;20198;-72
2022/10/27 05:56:50;;;;;;;4.55;2.58;;;;;;;10.58;78.70;95736.25;5117074;27;20204;-72
2022/10/27 05:59:17;;;;;;;5.38;2.88;;;;;;;10.66;78.41;95739.06;5120450;27;20208;-71
2022/10/27 06:01:44;;;;;;;3.58;2.20;;;;;;;10.86;77.32;95739.78;5119882;27;20201;-74
2022/10/27 06:04:11;;;;;;;5.18;2.50;;;;;;;10.97;76.93;95747.41;5128239;27;20225;-72
2022/10/27 06:06:38;;;;;;;6.68;3.05;;;;;;;11.20;75.43;95745.59;5128100;27;20258;-72
2022/10/27 06:09:04;;;;;;;5.20;2.67;;;;;;;11.22;75.71;95743.34;5121934;27;20560;-72
2022/10/27 06:11:31;;;;;;;3.58;2.42;;;;;;;11.36;75.24;95740.63;5120699;27;20694;-74
2022/10/27 06:14:01;;;;;;;6.85;3.22;;;;;;;12.00;73.44;95744.06;5119546;27;20200;-73
2022/10/27 06:16:28;;;;;;;9.82;3.03;;;;;;;13.23;70.65;95732.34;5123160;27;20201;-73
2022/10/27 06:18:55;;;;;;;9.80;4.20;;;;;;;14.64;66.06;95728.91;5119601;27;20194;-73
2022/10/27 06:21:22;;;;;;;7.28;3.25;;;;;;;16.05;61.38;95716.50;5120143;27;20229;-72
2022/10/27 06:23:50;;;;;;;7.22;3.05;;;;;;;16.94;57.88;95725.91;5115418;27;20189;-73
2022/10/27 06:26:17;;;;;;;6.65;3.03;;;;;;;17.59;55.88;95724.03;5123111;28;20192;-73
2022/10/27 06:28:44;;;;;;;8.45;3.63;;;;;;;17.23;55.42;95732.28;5116782;28;20680;-73
2022/10/27 06:31:12;;;;;;;9.00;3.92;;;;;;;16.81;56.52;95737.19;5116261;28;20243;-73
2022/10/27 06:33:39;;;;;;;4.88;3.22;;;;;;;16.67;57.52;95745.69;5129923;28;20204;-73
2022/10/27 06:36:06;;;;;;;11.32;4.47;;;;;;;16.77;56.94;95748.00;5129506;28;20200;-73
2022/10/27 06:38:33;;;;;;;10.70;5.88;;;;;;;16.66;57.15;95733.97;5121193;28;20626;-73
2022/10/27 06:40:59;;;;;;;15.18;5.28;;;;;;;15.67;59.26;95744.00;5125036;28;20197;-74
2022/10/27 06:43:26;;;;;;;21.02;4.93;;;;;;;15.36;60.22;95747.06;5122055;28;20193;-73
2022/10/27 06:45:53;;;;;;;11.57;4.97;;;;;;;15.37;61.17;95756.03;5124337;28;20272;-73
2022/10/27 06:48:21;;;;;;;15.25;7.35;;;;;;;15.08;62.66;95759.56;5116304;28;20210;-73
2022/10/27 06:50:48;;;;;;;18.00;7.40;;;;;;;14.35;64.16;95767.00;5121383;28;20202;-72
2022/10/27 06:53:14;;;;;;;15.70;5.63;;;;;;;14.34;64.09;95757.22;5129085;28;20241;-73
2022/10/27 06:55:41;;;;;;;8.05;5.03;;;;;;;14.79;63.13;95755.66;5129328;28;20250;-73
2022/10/27 06:58:08;;;;;;;20.35;5.57;;;;;;;15.16;61.81;95756.81;5121458;28;20210;-75
2022/10/27 07:00:36;;;;;;;10.50;5.32;;;;;;;15.41;61.41;95757.78;5123203;28;20247;-72
2022/10/27 07:03:07;;;;;;;10.50;5.13;;;;;;;15.66;60.48;95763.44;5122397;28;20201;-73
2022/10/27 07:05:35;;;;;;;13.98;5.22;;;;;;;15.77;59.43;95760.00;5121048;27;20297;-75
2022/10/27 07:08:02;;;;;;;11.30;4.80;;;;;;;15.91;59.70;95760.53;5126917;28;20204;-74
2022/10/27 07:10:29;;;;;;;11.23;5.70;;;;;;;16.10;58.28;95762.78;5128683;28;20201;-74
2022/10/27 07:12:58;;;;;;;9.45;4.72;;;;;;;15.69;59.94;95762.78;5117476;28;20312;-72
2022/10/27 07:15:27;;;;;;;11.07;4.50;;;;;;;15.52;59.56;95764.47;5126769;28;20731;-72
2022/10/27 07:17:56;;;;;;;15.60;5.00;;;;;;;15.12;60.30;95768.69;5129525;28;20209;-72
2022/10/27 07:20:26;;;;;;;8.13;4.65;;;;;;;15.55;59.77;95769.31;5128638;28;20241;-73
2022/10/27 07:22:54;;;;;;;10.57;4.20;;;;;;;15.19;60.48;95768.97;5128912;28;20617;-72
2022/10/27 07:25:21;;;;;;;14.23;4.80;;;;;;;14.80;61.13;95779.09;5129003;28;20699;-72
2022/10/27 07:27:52;;;;;;;8.93;4.70;;;;;;;15.20;60.46;95774.09;5128944;28;20677;-73
2022/10/27 07:30:20;;;;;;;13.32;6.50;;;;;;;14.99;60.65;95783.38;5129441;27;20210;-71
2022/10/27 07:32:46;;;;;;;9.10;4.85;;;;;;;14.76;62.04;95789.03;5131759;27;20253;-73
2022/10/27 07:35:14;;;;;;;7.93;3.92;;;;;;;14.68;61.58;95792.59;5132523;27;20253;-72
2022/10/27 07:37:43;;;;;;;9.60;4.55;;;;;;;14.90;61.10;95792.38;5131906;27;20663;-71
2022/10/27 07:40:13;;;;;;;10.48;3.95;;;;;;;14.82;60.62;95787.75;5132975;27;20281;-72
2022/10/27 07:42:44;;;;;;;7.50;3.15;;;;;;;14.54;60.62;95786.53;5132451;27;20716;-70
2022/10/27 07:45:12;;;;;;;5.93;3.33;;;;;;;14.47;61.15;95794.44;5132325;27;20635;-74
2022/10/27 07:47:43;;;;;;;7.85;3.95;;;;;;;14.62;61.04;95795.84;5133253;27;20214;-74
2022/10/27 07:50:10;;;;;;;7.90;5.00;;;;;;;14.38;61.57;95799.03;5126095;27;20193;-74
2022/10/27 07:52:41;;;;;;;7.10;4.25;;;;;;;14.26;61.92;95805.16;5133040;27;20205;-74
2022/10/27 07:55:09;;;;;;;16.48;6.40;;;;;;;14.34;61.63;95801.63;5132933;27;20292;-74
2022/10/27 07:57:37;;;;;;;15.43;6.80;;;;;;;14.52;61.60;95797.78;5132936;27;20249;-75
2022/10/27 08:00:04;;;;;;;6.63;4.32;;;;;;;14.61;61.24;95795.03;5133358;27;20204;-74
2022/10/27 08:02:31;;;;;;;8.50;3.85;;;;;;;14.78;60.55;95805.88;5132802;27;20201;-74
2022/10/27 08:04:58;;;;;;;6.13;3.15;;;;;;;14.82;59.67;95798.66;5132748;27;20644;-73
2022/10/27 08:07:25;;;;;;;11.93;5.47;;;;;;;14.97;59.40;95797.34;5132096;27;20719;-73
2022/10/27 08:09:52;;;;;;;7.95;3.80;;;;;;;15.00;59.52;95791.22;5132327;27;20197;-75
2022/10/27 08:12:18;;;;;;;8.20;3.65;;;;;;;15.07;59.68;95788.78;5132681;27;20285;-74
2022/10/27 08:14:46;;;;;;;5.90;3.45;;;;;;;15.35;58.67;95780.94;5132214;27;20213;-74
2022/10/27 08:17:13;;;;;;;6.63;3.25;;;;;;;15.61;58.18;95784.34;5132649;27;20659;-75
2022/10/27 08:19:40;;;;;;;5.38;2.88;;;;;;;15.69;57.95;95779.19;5133053;27;20201;-74
2022/10/27 08:22:07;;;;;;;9.55;3.45;;;;;;;15.86;58.26;95774.38;5132698;27;20201;-75
2022/10/27 08:24:34;;;;;;;5.40;2.72;;;;;;;15.71;58.26;95772.25;5132600;27;20197;-74
2022/10/27 08:27:01;;;;;;;4.70;2.83;;;;;;;15.90;57.49;95774.53;5132400;27;20212;-73
2022/10/27 08:29:28;;;;;;;5.03;3.05;;;;;;;15.76;57.41;95773.97;5132348;27;20323;-74
2022/10/27 08:31:56;;;;;;;5.82;3.20;;;;;;;15.69;57.88;95779.97;5132401;27;20201;-73
2022/10/27 08:34:23;;;;;;;9.30;3.28;;;;;;;15.89;57.91;95778.38;5132176;27;20201;-74
2022/10/27 08:36:49;;;;;;;6.07;3.28;;;;;;;16.03;57.72;95775.38;5132190;27;20205;-75
2022/10/27 08:39:16;;;;;;;5.97;3.22;;;;;;;16.33;57.17;95777.69;5131175;27;20205;-73
2022/10/27 08:41:49;;;;;;;13.88;5.10;;;;;;;16.27;56.14;95773.56;5131859;27;20282;-73
2022/10/27 08:44:24;;;;;;;6.22;3.03;;;;;;;16.37;55.57;95783.31;5132220;27;20208;-74
2022/10/27 08:46:53;;;;;;;4.20;2.40;;;;;;;16.35;55.56;95780.91;5131556;27;20239;-74
2022/10/27 08:49:28;;;;;;;7.75;3.05;;;;;;;16.59;55.24;95774.72;5132323;27;20212;-73
2022/10/27 08:51:59;;;;;;;6.25;3.25;;;;;;;16.73;54.47;95768.97;5132471;27;20196;-73
2022/10/27 08:54:27;;;;;;;11.82;2.90;;;;;;;16.62;54.38;95773.25;5131980;27;20249;-73
2022/10/27 08:56:56;;;;;;;7.22;2.90;;;;;;;16.67;53.98;95778.53;5131563;27;20663;-74
2022/10/27 08:59:25;;;;;;;6.03;2.83;;;;;;;16.77;53.71;95777.31;5131645;27;20201;-74
2022/10/27 09:02:00;;;;;;;13.68;4.28;;;;;;;16.99;53.11;95771.41;5131764;27;20564;-74
2022/10/27 09:04:43;;;;;;;7.22;2.88;;;;;;;17.09;53.77;95772.88;5131931;27;20204;-74
2022/10/27 09:07:18;;;;;;;9.25;2.15;;;;;;;17.08;52.83;95776.78;5131541;27;20211;-75
2022/10/27 09:09:52;;;;;;;6.03;2.45;;;;;;;17.10;52.04;95766.28;5131673;27;20200;-73
2022/10/27 09:12:36;;;;;;;4.10;2.28;;;;;;;17.38;52.23;95772.69;5131104;27;20244;-73
2022/10/27 09:15:29;;;;;;;6.22;2.40;;;;;;;17.68;50.71;95767.78;5131372;27;20299;-74
2022/10/27 09:18:03;;;;;;;5.22;3.47;;;;;;;17.91;50.17;95773.56;5130439;27;20204;-73
2022/10/27 09:20:37;;;;;;;4.97;2.95;;;;;;;17.86;49.92;95768.34;5131180;27;20197;-72
2022/10/27 09:23:10;;;;;;;4.30;2.67;;;;;;;17.67;50.14;95763.44;5130883;27;20200;-75
2022/10/27 09:25:39;;;;;;;6.30;3.20;;;;;;;17.59;50.46;95765.16;5131429;27;20216;-74
2022/10/27 09:28:11;;;;;;;4.93;3.08;;;;;;;17.65;49.91;95765.72;5130857;27;20253;-74
2022/10/27 09:30:40;;;;;;;7.35;3.10;;;;;;;17.82;49.63;95759.19;5131632;27;20197;-74
2022/10/27 09:33:13;;;;;;;4.97;2.88;;;;;;;18.09;49.18;95758.44;5131397;27;20201;-74
2022/10/27 09:35:42;;;;;;;6.32;3.53;;;;;;;18.34;49.29;95754.47;5131425;27;20659;-73
2022/10/27 09:38:13;;;;;;;9.23;3.53;;;;;;;18.44;48.03;95743.00;5130273;27;20270;-74
2022/10/27 09:40:40;;;;;;;7.25;3.30;;;;;;;18.47;48.09;95739.53;5129936;27;20674;-74
2022/10/27 09:43:10;;;;;;;4.97;2.63;;;;;;;18.54;47.64;95743.63;5129820;27;20723;-74
2022/10/27 09:45:37;;;;;;;6.57;2.85;;;;;;;18.81;47.50;95745.56;5130542;27;20284;-74
2022/10/27 09:48:06;;;;;;;7.72;3.17;;;;;;;18.91;46.95;95739.53;5130176;27;20205;-74
2022/10/27 09:50:39;;;;;;;6.53;3.17;;;;;;;18.47;47.01;95736.78;5131380;27;20200;-75
2022/10/27 09:53:39;;;;;;;8.07;3.55;;;;;;;18.45;46.86;95733.59;5117921;27;20555;-75
2022/10/27 09:56:09;;;;;;;4.38;2.83;;;;;;;18.37;46.60;95731.00;5130112;27;20221;-76
2022/10/27 09:58:56;;;;;;;3.90;2.22;;;;;;;18.66;46.08;95732.63;5130712;27;20720;-74
2022/10/27 10:01:24;;;;;;;6.53;2.50;;;;;;;18.98;45.35;95739.75;5110655;28;20189;-74
2022/10/27 10:03:56;;;;;;;5.05;2.45;;;;;;;19.16;45.08;95727.22;5126391;27;20254;-74
2022/10/27 10:06:31;;;;;;;2.45;1.75;;;;;;;19.16;44.02;95726.44;5128752;27;20225;-74
2022/10/27 10:09:17;;;;;;;4.05;1.77;;;;;;;19.02;44.11;95732.38;5129419;27;20200;-75
2022/10/27 10:11:44;;;;;;;3.35;1.90;;;;;;;19.15;43.98;95722.88;5128303;27;20320;-74
2022/10/27 10:14:21;;;;;;;3.28;1.92;;;;;;;19.06;43.86;95730.50;5129729;27;20220;-72
2022/10/27 10:16:49;;;;;;;3.78;2.22;;;;;;;18.91;44.10;95725.03;5130205;27;20501;-74
2022/10/27 10:19:18;;;;;;;3.67;2.35;;;;;;;18.87;44.61;95719.44;5130526;27;20265;-74
2022/10/27 10:21:49;;;;;;;6.15;2.10;;;;;;;19.01;44.44;95717.03;5130310;27;20196;-74
2022/10/27 10:24:20;;;;;;;1.77;1.33;;;;;;;19.14;40.48;95720.50;5130531;27;20204;-73
2022/10/27 10:26:49;;;;;;;2.42;1.80;;;;;;;19.17;41.27;95719.78;5130201;28;20221;-75
2022/10/27 10:29:26;;;;;;;2.47;1.85;;;;;;;19.18;41.43;95721.38;5130415;28;20260;-72
2022/10/27 10:32:14;;;;;;;7.38;2.05;;;;;;;18.97;42.42;95721.66;5130355;28;20239;-74
2022/10/27 10:34:43;;;;;;;3.95;1.80;;;;;;;19.07;42.41;95720.31;5129908;28;20205;-75
2022/10/27 10:37:36;;;;;;;3.72;1.55;;;;;;;19.10;42.00;95720.44;5130004;28;20298;-75
2022/10/27 10:40:24;;;;;;;3.53;1.80;;;;;;;19.10;40.85;95720.44;5130318;28;20211;-74
2022/10/27 10:43:01;;;;;;;2.05;1.27;;;;;;;18.91;41.82;95714.03;5129442;28;20296;-75
2022/10/27 10:45:29;;;;;;;3.17;1.65;;;;;;;19.14;40.61;95704.81;5129765;28;20224;-74
2022/10/27 10:47:59;;;;;;;3.25;1.63;;;;;;;19.27;40.69;95712.97;5128901;28;20196;-75
2022/10/27 10:50:28;;;;;;;3.35;1.60;;;;;;;19.30;39.53;95706.75;5128357;28;20694;-75
2022/10/27 10:52:57;;;;;;;3.30;1.50;;;;;;;19.41;40.29;95703.09;5129564;28;20891;-75
2022/10/27 10:55:28;;;;;;;3.35;1.90;;;;;;;19.44;39.92;95704.31;5128721;28;20201;-74
2022/10/27 10:57:57;;;;;;;2.67;1.50;;;;;;;19.76;39.50;95689.38;5117100;28;20779;-74
2022/10/27 11:00:24;;;;;;;3.40;1.90;;;;;;;19.80;37.00;95697.72;5130462;28;20212;-74
2022/10/27 11:02:55;;;;;;;2.08;1.08;;;;;;;19.71;36.62;95700.66;5130236;28;20208;-76
2022/10/27 11:05:25;;;;;;;1.70;0.93;;;;;;;19.66;36.40;95698.19;5131020;27;20600;-73
2022/10/27 11:07:52;;;;;;;1.10;1.00;;;;;;;19.61;37.12;95695.72;5134432;27;20204;-74
2022/10/27 11:10:23;;;;;;;2.83;1.30;;;;;;;19.56;36.94;95693.25;5133886;27;20655;-74
2022/10/27 11:12:54;;;;;;;1.33;0.93;;;;;;;19.78;37.48;95680.78;5134042;27;20670;-74
2022/10/27 11:15:27;;;;;;;1.95;1.38;;;;;;;19.92;36.67;95685.78;5132862;27;20336;-73
2022/10/27 11:17:59;;;;;;;2.80;1.08;;;;;;;19.87;37.09;95676.66;5133723;27;20254;-74
2022/10/27 11:20:30;;;;;;;2.05;1.13;;;;;;;19.85;36.09;95681.72;5133861;27;20193;-74
2022/10/27 11:23:00;;;;;;;2.33;1.45;;;;;;;19.93;36.83;95673.63;5120237;27;20643;-75
2022/10/27 11:25:31;;;;;;;3.40;1.30;;;;;;;20.12;36.30;95676.34;5120068;27;20226;-78
2022/10/27 11:28:10;;;;;;;2.35;1.23;;;;;;;20.10;36.40;95668.44;5133336;27;20291;-75
2022/10/27 11:30:44;;;;;;;2.58;1.30;;;;;;;19.87;36.73;95665.66;5133576;27;21008;-75
2022/10/27 11:33:17;;;;;;;1.92;1.40;;;;;;;19.94;37.63;95666.97;5133933;27;20237;-74
2022/10/27 11:35:52;;;;;;;1.30;1.08;;;;;;;19.98;36.97;95665.06;5133706;27;20245;-74
2022/10/27 11:38:28;;;;;;;2.15;1.30;;;;;;;19.93;37.09;95662.63;5133456;27;20204;-73
2022/10/27 11:41:00;;;;;;;1.33;0.93;;;;;;;19.97;37.88;95669.75;5133527;27;20196;-73
2022/10/27 11:43:34;;;;;;;1.50;1.08;;;;;;;19.92;38.53;95661.03;5132887;27;20228;-73
2022/10/27 11:46:08;;;;;;;2.55;1.33;;;;;;;19.84;38.43;95666.38;5132109;27;20241;-74
2022/10/27 11:48:39;;;;;;;1.98;1.20;;;;;;;20.03;35.98;95662.81;5133399;27;20197;-72